Suffield, Connecticut
Current Conditions -  °F | °C
As of 10:51 PM on Sunday 21 Dec 2014 (Local Time) from KBDL Reporting Station
Overcast Overcast  
Wind Chill: 30°   Ceiling: 1600
Heat Index: 34°   Visibility: 10mi
Dew Point: 30°   Wind: 5mph
Humidity: 85%   Direction: 360°N
Pressure: 30.34"   Gusts: NA
Location:  41.98°N, 72.65°W
Report Text: KBDL 220351Z 36004KT 10SM BKN016 OVC027 01/M01 A3034 RMK AO2 SLP277 T00111011 $
Loading
Personal Weather Stations






























Interactive Weather Map New forecast layout! Learn more

10-Day Weather Forecast

Advertisements
Track Severe Weather on mobile